Time;durP1;ratioP1;P1;durP2;ratioP2;P2;SDS_P1;SDS_P2;PMS_P1;PMS_P2;Temp;Humidity;BMP_temperature;BMP_pressure;BME280_temperature;BME280_humidity;BME280_pressure;Samples;Min_cycle;Max_cycle;Signal;HPM_P1;HPM_P2
2023/03/23 00:02:00;;;;;;;;;;;25.30;99.90;;;;;;5041055;28;19909;-69
2023/03/23 00:04:29;;;;;;;;;;;25.40;99.90;;;;;;5039096;28;19924;-69
2023/03/23 00:06:55;;;;;;;;;;;25.50;99.90;;;;;;5040175;28;19912;-69
2023/03/23 00:09:25;;;;;;;;;;;25.60;99.90;;;;;;5037860;28;19912;-71
2023/03/23 00:11:56;;;;;;;;;;;25.60;99.90;;;;;;5040788;28;19917;-68
2023/03/23 00:14:24;;;;;;;;;;;25.80;99.90;;;;;;5037506;28;19909;-70
2023/03/23 00:16:51;;;;;;;;;;;26.00;99.90;;;;;;5051047;28;19935;-69
2023/03/23 00:19:21;;;;;;;;;;;26.10;99.90;;;;;;5038595;28;19908;-70
2023/03/23 00:21:48;;;;;;;;;;;26.30;99.90;;;;;;5040079;28;19916;-71
2023/03/23 00:24:18;;;;;;;;;;;26.50;99.90;;;;;;5039190;28;20320;-68
2023/03/23 00:26:46;;;;;;;;;;;26.60;99.90;;;;;;5040221;28;20230;-69
2023/03/23 00:29:15;;;;;;;;;;;26.80;99.90;;;;;;5038744;28;19913;-68
2023/03/23 00:31:46;;;;;;;;;;;26.80;99.90;;;;;;5038982;28;19909;-66
2023/03/23 00:34:18;;;;;;;;;;;26.70;99.90;;;;;;5039650;28;20287;-69
2023/03/23 00:36:53;;;;;;;;;;;26.70;99.90;;;;;;5038816;28;19913;-68
2023/03/23 00:39:45;;;;;;;;;;;26.60;99.90;;;;;;5095877;27;19912;-68
2023/03/23 00:42:12;;;;;;;;;;;26.60;99.90;;;;;;5096577;28;20684;-68
2023/03/23 00:44:39;;;;;;;;;;;26.50;99.90;;;;;;5095848;28;19908;-68
2023/03/23 00:47:08;;;;;;;;;;;26.40;99.90;;;;;;5087101;28;20451;-68
2023/03/23 00:49:35;;;;;;;;;;;26.20;99.90;;;;;;5090307;28;19954;-69
2023/03/23 00:52:02;;;;;;;;;;;26.10;99.90;;;;;;5097130;28;20404;-68
2023/03/23 00:54:29;;;;;;;;;;;26.10;99.90;;;;;;5081751;28;19904;-69
2023/03/23 00:56:55;;;;;;;;;;;26.00;99.90;;;;;;5076665;28;19989;-70
2023/03/23 00:59:22;;;;;;;;;;;25.80;99.90;;;;;;5075704;28;19923;-69
2023/03/23 01:01:50;;;;;;;;;;;26.00;99.90;;;;;;5075506;28;19909;-68
2023/03/23 01:04:16;;;;;;;;;;;25.90;99.90;;;;;;5084317;28;19919;-67
2023/03/23 01:06:44;;;;;;;;;;;25.80;99.90;;;;;;5087616;28;20716;-69
2023/03/23 01:09:14;;;;;;;;;;;25.90;99.90;;;;;;5076812;28;20331;-69
2023/03/23 01:11:42;;;;;;;;;;;25.90;99.90;;;;;;5092549;28;19915;-68
2023/03/23 01:14:09;;;;;;;;;;;25.90;99.90;;;;;;5094323;28;19915;-70
2023/03/23 01:16:35;;;;;;;;;;;26.00;99.90;;;;;;5094365;28;19960;-69
2023/03/23 01:19:02;;;;;;;;;;;26.10;99.90;;;;;;5096044;28;19961;-70
2023/03/23 01:21:29;;;;;;;;;;;26.20;99.90;;;;;;5094680;28;19908;-69
2023/03/23 01:23:56;;;;;;;;;;;26.30;99.90;;;;;;5092836;28;19914;-67
2023/03/23 01:26:24;;;;;;;;;;;26.40;99.90;;;;;;5075437;28;19960;-67
2023/03/23 01:28:51;;;;;;;;;;;26.50;99.90;;;;;;5085976;28;19908;-69
2023/03/23 01:31:19;;;;;;;;;;;26.60;99.90;;;;;;5093745;27;20395;-70
2023/03/23 01:33:46;;;;;;;;;;;26.70;99.90;;;;;;5094648;28;19962;-69
2023/03/23 01:36:14;;;;;;;;;;;26.70;99.90;;;;;;5092556;28;19914;-68
2023/03/23 01:38:42;;;;;;;;;;;26.70;99.90;;;;;;5086308;28;19920;-68
2023/03/23 01:41:09;;;;;;;;;;;26.70;99.90;;;;;;5106810;27;19966;-69
2023/03/23 01:43:36;;;;;;;;;;;26.60;99.90;;;;;;5133655;27;20034;-69
2023/03/23 01:46:02;;;;;;;;;;;26.50;99.90;;;;;;5095575;28;19919;-68
2023/03/23 01:48:37;;;;;;;;;;;26.60;99.90;;;;;;5116201;28;19914;-69
2023/03/23 01:51:12;;;;;;;;;;;26.70;99.90;;;;;;5103071;28;19907;-68
2023/03/23 01:53:43;;;;;;;;;;;26.70;99.90;;;;;;5098207;28;20616;-68
2023/03/23 01:56:11;;;;;;;;;;;26.70;99.90;;;;;;5082338;28;20006;-68
2023/03/23 01:58:38;;;;;;;;;;;26.80;99.90;;;;;;5080354;28;19916;-69
2023/03/23 02:01:07;;;;;;;;;;;26.70;99.90;;;;;;5083015;28;19908;-69
2023/03/23 02:03:35;;;;;;;;;;;26.70;99.90;;;;;;5081219;28;20661;-70
2023/03/23 02:06:02;;;;;;;;;;;26.70;99.90;;;;;;5100703;28;19912;-67
2023/03/23 02:08:29;;;;;;;;;;;26.70;99.90;;;;;;5101230;28;19914;-69
2023/03/23 02:10:55;;;;;;;;;;;26.70;99.90;;;;;;5100621;28;19908;-70
2023/03/23 02:13:22;;;;;;;;;;;26.60;99.90;;;;;;5102019;28;19960;-71
2023/03/23 02:15:55;;;;;;;;;;;26.50;99.90;;;;;;5082161;28;19915;-70
2023/03/23 02:18:27;;;;;;;;;;;26.50;99.90;;;;;;5082038;28;20047;-70
2023/03/23 02:21:12;;;;;;;;;;;26.40;99.90;;;;;;5080974;28;20369;-68
2023/03/23 02:23:57;;;;;;;;;;;26.30;99.90;;;;;;5080519;28;19944;-73
2023/03/23 02:26:33;;;;;;;;;;;26.20;99.90;;;;;;5081952;28;19918;-69
2023/03/23 02:29:07;;;;;;;;;;;26.30;99.90;;;;;;5080400;28;20712;-71
2023/03/23 02:31:46;;;;;;;;;;;26.20;99.90;;;;;;5081204;28;20439;-70
2023/03/23 02:34:25;;;;;;;;;;;26.30;99.90;;;;;;5084283;28;20002;-71
2023/03/23 02:37:08;;;;;;;;;;;26.20;99.90;;;;;;5101550;28;19938;-67
2023/03/23 02:39:37;;;;;;;;;;;26.30;99.90;;;;;;5101456;28;20548;-68
2023/03/23 02:42:09;;;;;;;;;;;26.40;99.90;;;;;;5100576;28;20439;-68
2023/03/23 02:44:38;;;;;;;;;;;26.50;99.90;;;;;;5094353;28;20425;-69
2023/03/23 02:47:07;;;;;;;;;;;26.50;99.90;;;;;;5080131;28;20326;-67
2023/03/23 02:49:36;;;;;;;;;;;26.50;99.90;;;;;;5080482;28;20002;-68
2023/03/23 02:52:05;;;;;;;;;;;26.60;99.90;;;;;;5093071;28;19907;-68
2023/03/23 02:54:32;;;;;;;;;;;26.70;99.90;;;;;;5095066;28;20269;-68
2023/03/23 02:56:59;;;;;;;;;;;26.80;99.90;;;;;;5096479;28;19939;-68
2023/03/23 02:59:25;;;;;;;;;;;26.80;99.90;;;;;;5101292;28;19916;-70
2023/03/23 03:01:55;;;;;;;;;;;27.00;99.90;;;;;;5092572;28;19986;-69
2023/03/23 03:04:23;;;;;;;;;;;27.20;99.90;;;;;;5093183;28;19943;-68
2023/03/23 03:06:56;;;;;;;;;;;27.30;99.90;;;;;;5090325;28;19919;-69
2023/03/23 03:09:28;;;;;;;;;;;27.60;99.90;;;;;;5080959;28;19970;-67
2023/03/23 03:11:58;;;;;;;;;;;27.70;99.90;;;;;;5088004;28;19957;-68
2023/03/23 03:14:29;;;;;;;;;;;27.80;99.90;;;;;;5087898;28;20403;-70
2023/03/23 03:16:56;;;;;;;;;;;28.10;99.90;;;;;;5099379;28;19958;-71
2023/03/23 03:19:25;;;;;;;;;;;28.90;99.90;;;;;;5099638;28;20282;-67
2023/03/23 03:21:54;;;;;;;;;;;30.20;98.30;;;;;;5099807;28;19908;-72
2023/03/23 03:24:22;;;;;;;;;;;31.50;96.60;;;;;;5095349;28;19980;-71
2023/03/23 03:26:51;;;;;;;;;;;32.60;94.40;;;;;;5100335;28;19908;-69
2023/03/23 03:29:20;;;;;;;;;;;32.60;93.20;;;;;;5099758;28;19919;-71
2023/03/23 03:31:48;;;;;;;;;;;32.10;93.30;;;;;;5080807;28;19919;-69
2023/03/23 03:34:17;;;;;;;;;;;31.20;93.80;;;;;;5098243;28;20014;-70
2023/03/23 03:36:45;;;;;;;;;;;30.50;94.70;;;;;;5086372;28;19919;-68
2023/03/23 03:39:12;;;;;;;;;;;29.70;95.70;;;;;;5088899;28;19920;-68
2023/03/23 03:41:39;;;;;;;;;;;29.20;96.50;;;;;;5098193;28;19918;-70
2023/03/23 03:44:06;;;;;;;;;;;29.00;97.60;;;;;;5094030;28;19998;-68
2023/03/23 03:46:36;;;;;;;;;;;28.70;98.70;;;;;;5097810;28;19912;-69
2023/03/23 03:49:03;;;;;;;;;;;28.30;99.60;;;;;;5100213;28;19911;-69
2023/03/23 03:51:30;;;;;;;;;;;28.10;99.90;;;;;;5099176;28;19923;-68
2023/03/23 03:53:57;;;;;;;;;;;27.90;99.90;;;;;;5084719;28;19920;-70
2023/03/23 03:56:24;;;;;;;;;;;27.60;99.90;;;;;;5091837;28;20332;-69
2023/03/23 03:58:51;;;;;;;;;;;27.50;99.90;;;;;;5086577;28;20016;-69
2023/03/23 04:01:18;;;;;;;;;;;27.30;99.90;;;;;;5079982;28;19919;-67
2023/03/23 04:03:45;;;;;;;;;;;27.10;99.90;;;;;;5078398;28;19943;-68
2023/03/23 04:06:14;;;;;;;;;;;26.90;99.90;;;;;;5081862;28;20014;-70
2023/03/23 04:08:41;;;;;;;;;;;26.90;99.90;;;;;;5098027;28;19923;-71
2023/03/23 04:11:08;;;;;;;;;;;27.20;99.90;;;;;;5080748;28;20006;-69
2023/03/23 04:13:35;;;;;;;;;;;27.90;99.90;;;;;;5098624;28;19922;-70
2023/03/23 04:16:02;;;;;;;;;;;28.40;99.90;;;;;;5075885;28;20673;-69
2023/03/23 04:18:29;;;;;;;;;;;28.50;99.90;;;;;;5096897;28;19927;-68
2023/03/23 04:20:58;;;;;;;;;;;28.50;99.90;;;;;;5091748;28;19980;-71
2023/03/23 04:23:26;;;;;;;;;;;28.30;99.90;;;;;;5098664;28;19930;-69
2023/03/23 04:25:56;;;;;;;;;;;28.20;99.90;;;;;;5084155;28;19977;-69
2023/03/23 04:28:24;;;;;;;;;;;28.40;99.90;;;;;;5097399;28;20002;-67
2023/03/23 04:30:54;;;;;;;;;;;28.60;99.90;;;;;;5098451;28;19908;-69
2023/03/23 04:33:24;;;;;;;;;;;28.70;99.90;;;;;;5099472;28;19908;-68
2023/03/23 04:35:52;;;;;;;;;;;28.90;99.90;;;;;;5096458;28;19936;-69
2023/03/23 04:38:20;;;;;;;;;;;29.60;98.90;;;;;;5086009;28;19920;-68
2023/03/23 04:40:51;;;;;;;;;;;30.10;98.60;;;;;;5087789;28;19912;-68
2023/03/23 04:43:24;;;;;;;;;;;31.10;97.40;;;;;;5099132;28;19957;-69
2023/03/23 04:45:57;;;;;;;;;;;32.50;95.60;;;;;;5090556;28;19927;-71
2023/03/23 04:48:25;;;;;;;;;;;33.20;94.30;;;;;;5082988;28;19920;-69
2023/03/23 04:50:53;;;;;;;;;;;34.20;93.50;;;;;;5079704;28;20361;-70
2023/03/23 04:53:20;;;;;;;;;;;34.90;91.70;;;;;;5091401;28;19912;-70
2023/03/23 04:55:47;;;;;;;;;;;34.60;91.10;;;;;;5078416;28;19912;-70
2023/03/23 04:58:15;;;;;;;;;;;33.80;91.20;;;;;;5091935;28;19923;-70
2023/03/23 05:00:43;;;;;;;;;;;32.90;92.40;;;;;;5091674;28;19912;-69
2023/03/23 05:03:10;;;;;;;;;;;31.50;93.90;;;;;;5094505;28;19923;-68
2023/03/23 05:05:37;;;;;;;;;;;30.50;95.20;;;;;;5091508;28;19939;-69
2023/03/23 05:08:04;;;;;;;;;;;29.80;96.20;;;;;;5088094;28;19977;-70
2023/03/23 05:10:30;;;;;;;;;;;29.30;97.60;;;;;;5085947;28;19920;-71
2023/03/23 05:12:57;;;;;;;;;;;28.80;98.00;;;;;;5081946;28;19913;-71
2023/03/23 05:15:24;;;;;;;;;;;28.30;98.80;;;;;;5088729;28;19939;-70
2023/03/23 05:17:55;;;;;;;;;;;27.80;99.50;;;;;;5094454;28;20018;-68
2023/03/23 05:20:22;;;;;;;;;;;27.40;99.90;;;;;;5093551;28;19915;-70
2023/03/23 05:22:49;;;;;;;;;;;27.00;99.90;;;;;;5094538;28;20368;-70
2023/03/23 05:25:18;;;;;;;;;;;26.70;99.90;;;;;;5096286;28;19911;-70
2023/03/23 05:27:48;;;;;;;;;;;26.50;99.90;;;;;;5082152;28;19916;-68
2023/03/23 05:30:16;;;;;;;;;;;26.20;99.90;;;;;;5092603;28;19953;-67
2023/03/23 05:32:44;;;;;;;;;;;26.00;99.90;;;;;;5097273;28;20283;-69
2023/03/23 05:35:11;;;;;;;;;;;25.80;99.90;;;;;;5099649;28;19919;-69
2023/03/23 05:37:38;;;;;;;;;;;25.70;99.90;;;;;;5094111;28;19927;-70
2023/03/23 05:40:06;;;;;;;;;;;25.60;99.90;;;;;;5089629;28;19999;-69
2023/03/23 05:42:36;;;;;;;;;;;25.60;99.90;;;;;;5092677;27;19972;-69
2023/03/23 05:45:03;;;;;;;;;;;25.50;99.90;;;;;;5098685;28;19930;-70
2023/03/23 05:47:30;;;;;;;;;;;25.30;99.90;;;;;;5099043;28;20287;-68
2023/03/23 05:49:57;;;;;;;;;;;25.20;99.90;;;;;;5083101;28;20328;-70
2023/03/23 05:52:24;;;;;;;;;;;25.10;99.90;;;;;;5095403;28;20006;-68
2023/03/23 05:54:51;;;;;;;;;;;25.00;99.90;;;;;;5093175;28;19964;-68
2023/03/23 05:57:18;;;;;;;;;;;24.70;99.90;;;;;;5093389;28;19937;-68
2023/03/23 05:59:45;;;;;;;;;;;24.50;99.90;;;;;;5087917;28;20374;-68
2023/03/23 06:02:13;;;;;;;;;;;24.30;99.90;;;;;;5093923;27;20429;-69
2023/03/23 06:04:40;;;;;;;;;;;24.20;99.90;;;;;;5092267;28;20364;-68
2023/03/23 06:07:12;;;;;;;;;;;24.20;99.90;;;;;;5090178;27;20362;-69
2023/03/23 06:09:40;;;;;;;;;;;24.10;99.90;;;;;;5083297;28;19911;-70
2023/03/23 06:12:07;;;;;;;;;;;23.90;99.90;;;;;;5087577;27;20363;-70
2023/03/23 06:14:34;;;;;;;;;;;23.80;99.90;;;;;;5091119;28;19915;-71
2023/03/23 06:17:00;;;;;;;;;;;23.60;99.90;;;;;;5096701;28;19911;-71
2023/03/23 06:19:27;;;;;;;;;;;23.40;99.90;;;;;;5096563;28;20375;-72
2023/03/23 06:21:57;;;;;;;;;;;23.40;99.90;;;;;;5090344;27;19969;-71
2023/03/23 06:24:23;;;;;;;;;;;23.30;99.90;;;;;;5084135;28;19959;-71
2023/03/23 06:26:50;;;;;;;;;;;23.20;99.90;;;;;;5099016;28;19951;-71
2023/03/23 06:29:17;;;;;;;;;;;23.10;99.90;;;;;;5094062;28;19912;-70
2023/03/23 06:31:45;;;;;;;;;;;23.00;99.90;;;;;;5072830;28;19915;-70
2023/03/23 06:34:12;;;;;;;;;;;22.90;99.90;;;;;;5070149;28;20727;-71
2023/03/23 06:36:39;;;;;;;;;;;22.80;99.90;;;;;;5089035;28;19911;-72
2023/03/23 06:39:05;;;;;;;;;;;22.70;99.90;;;;;;5099846;28;19964;-71
2023/03/23 06:41:32;;;;;;;;;;;22.60;99.90;;;;;;5100658;28;19911;-72
2023/03/23 06:44:00;;;;;;;;;;;22.60;99.90;;;;;;5094747;28;19938;-73
2023/03/23 06:46:27;;;;;;;;;;;22.50;99.90;;;;;;5094093;28;19969;-71
2023/03/23 06:48:54;;;;;;;;;;;22.50;99.90;;;;;;5099844;28;20657;-72
2023/03/23 06:51:21;;;;;;;;;;;22.50;99.90;;;;;;5088690;27;20396;-70
2023/03/23 06:53:48;;;;;;;;;;;22.50;99.90;;;;;;5073221;28;20368;-71
2023/03/23 06:56:15;;;;;;;;;;;22.50;99.90;;;;;;5097082;27;19911;-69
2023/03/23 06:58:42;;;;;;;;;;;22.40;99.90;;;;;;5092334;28;20073;-71
2023/03/23 07:01:09;;;;;;;;;;;22.30;99.90;;;;;;5086788;27;19912;-71
2023/03/23 07:03:36;;;;;;;;;;;22.20;99.90;;;;;;5087756;28;20006;-70
2023/03/23 07:06:03;;;;;;;;;;;22.20;99.90;;;;;;5079413;28;19912;-71
2023/03/23 07:08:30;;;;;;;;;;;22.10;99.90;;;;;;5087962;28;19908;-69
2023/03/23 07:10:57;;;;;;;;;;;22.10;99.90;;;;;;5081395;27;20356;-71
2023/03/23 07:13:24;;;;;;;;;;;21.90;99.90;;;;;;5079951;28;19908;-73
2023/03/23 07:15:50;;;;;;;;;;;21.90;99.90;;;;;;5096224;28;19911;-69
2023/03/23 07:18:18;;;;;;;;;;;21.90;99.90;;;;;;5090028;28;20288;-71
2023/03/23 07:20:47;;;;;;;;;;;21.80;99.90;;;;;;5098667;28;19955;-70
2023/03/23 07:23:14;;;;;;;;;;;21.90;99.90;;;;;;5084939;28;19927;-73
2023/03/23 07:25:41;;;;;;;;;;;21.80;99.90;;;;;;5079288;28;19912;-72
2023/03/23 07:28:07;;;;;;;;;;;21.80;99.90;;;;;;5083373;27;20006;-71
2023/03/23 07:30:34;;;;;;;;;;;21.80;99.90;;;;;;5079146;28;19919;-71
2023/03/23 07:33:04;;;;;;;;;;;21.80;99.90;;;;;;5085826;28;20284;-72
2023/03/23 07:35:31;;;;;;;;;;;21.70;99.90;;;;;;5074849;28;20372;-71
2023/03/23 07:37:57;;;;;;;;;;;21.70;99.90;;;;;;5097638;28;19920;-71
2023/03/23 07:40:24;;;;;;;;;;;21.70;99.90;;;;;;5098683;28;19919;-70
2023/03/23 07:42:56;;;;;;;;;;;21.70;99.90;;;;;;5096182;28;19915;-70
2023/03/23 07:45:24;;;;;;;;;;;21.70;99.90;;;;;;5094307;28;19957;-70
2023/03/23 07:47:52;;;;;;;;;;;21.70;99.90;;;;;;5085044;28;19908;-70
2023/03/23 07:50:24;;;;;;;;;;;21.60;99.90;;;;;;5094440;28;19938;-70
2023/03/23 07:52:52;;;;;;;;;;;21.60;99.90;;;;;;5098591;28;20019;-71
2023/03/23 07:55:19;;;;;;;;;;;21.60;99.90;;;;;;5093904;28;20015;-70
2023/03/23 07:57:46;;;;;;;;;;;21.60;99.90;;;;;;5092202;27;19992;-69
2023/03/23 08:00:23;;;;;;;;;;;21.50;99.90;;;;;;5084595;28;19997;-68
2023/03/23 08:02:51;;;;;;;;;;;21.40;99.90;;;;;;5099351;28;19912;-69
2023/03/23 08:05:18;;;;;;;;;;;21.50;99.90;;;;;;5085564;28;19912;-69
2023/03/23 08:07:45;;;;;;;;;;;21.40;99.90;;;;;;5091501;28;19907;-70
2023/03/23 08:10:13;;;;;;;;;;;21.40;99.90;;;;;;5082574;28;20403;-68
2023/03/23 08:12:41;;;;;;;;;;;21.40;99.90;;;;;;5090786;28;20321;-68
2023/03/23 08:15:08;;;;;;;;;;;21.40;99.90;;;;;;5098182;28;19994;-70
2023/03/23 08:17:36;;;;;;;;;;;21.40;99.90;;;;;;5070690;28;20291;-71
2023/03/23 08:20:09;;;;;;;;;;;21.30;99.90;;;;;;5078873;28;19959;-68
2023/03/23 08:22:35;;;;;;;;;;;21.30;99.90;;;;;;5089738;28;19977;-71
2023/03/23 08:25:03;;;;;;;;;;;21.30;99.90;;;;;;5082592;28;20425;-72
2023/03/23 08:27:30;;;;;;;;;;;21.30;99.90;;;;;;5088775;28;19915;-71
2023/03/23 08:29:57;;;;;;;;;;;21.30;99.90;;;;;;5086895;28;19912;-68
2023/03/23 08:32:23;;;;;;;;;;;21.30;99.90;;;;;;5098636;28;20300;-70
2023/03/23 08:34:50;;;;;;;;;;;21.20;99.90;;;;;;5083402;28;19912;-72
2023/03/23 08:37:17;;;;;;;;;;;21.20;99.90;;;;;;5083741;28;19912;-69
2023/03/23 08:39:44;;;;;;;;;;;21.20;99.90;;;;;;5077714;28;20016;-70
2023/03/23 08:42:11;;;;;;;;;;;21.10;99.90;;;;;;5079047;28;19912;-72
2023/03/23 08:44:38;;;;;;;;;;;21.10;99.90;;;;;;5089727;28;19994;-69
2023/03/23 08:47:06;;;;;;;;;;;21.10;99.90;;;;;;5093052;28;19923;-70
2023/03/23 08:49:34;;;;;;;;;;;21.10;99.90;;;;;;5087105;28;19993;-67
2023/03/23 08:52:01;;;;;;;;;;;21.10;99.90;;;;;;5088300;28;20053;-71
2023/03/23 08:54:29;;;;;;;;;;;21.00;99.90;;;;;;5084891;28;19920;-71
2023/03/23 08:56:56;;;;;;;;;;;21.00;99.90;;;;;;5089701;28;19912;-70
2023/03/23 08:59:23;;;;;;;;;;;21.10;99.90;;;;;;5085421;28;19943;-68
2023/03/23 09:01:49;;;;;;;;;;;21.10;99.90;;;;;;5102797;28;19908;-69
2023/03/23 09:04:16;;;;;;;;;;;21.10;99.90;;;;;;5093718;27;19919;-71
2023/03/23 09:06:44;;;;;;;;;;;21.10;99.90;;;;;;5099448;28;19965;-70
2023/03/23 09:09:11;;;;;;;;;;;21.10;99.90;;;;;;5082790;28;19981;-70
2023/03/23 09:11:38;;;;;;;;;;;21.20;99.90;;;;;;5102068;28;19920;-70
2023/03/23 09:14:06;;;;;;;;;;;21.10;99.90;;;;;;5099762;28;20018;-71
2023/03/23 09:16:33;;;;;;;;;;;21.10;99.90;;;;;;5095727;28;19912;-70
2023/03/23 09:19:00;;;;;;;;;;;21.10;99.90;;;;;;5089600;28;20014;-70
2023/03/23 09:21:28;;;;;;;;;;;21.00;99.90;;;;;;5097540;28;19912;-71
2023/03/23 09:23:58;;;;;;;;;;;21.00;99.90;;;;;;5099222;27;20403;-71
2023/03/23 09:26:26;;;;;;;;;;;21.00;99.90;;;;;;5100746;28;19915;-70
2023/03/23 09:28:52;;;;;;;;;;;21.00;99.90;;;;;;5081084;28;20037;-69
2023/03/23 09:31:22;;;;;;;;;;;21.00;99.90;;;;;;5083651;28;19965;-71
2023/03/23 09:33:52;;;;;;;;;;;21.00;99.90;;;;;;5081641;28;20216;-70
2023/03/23 09:36:21;;;;;;;;;;;21.00;99.90;;;;;;5102989;27;19994;-71
2023/03/23 09:38:48;;;;;;;;;;;21.00;99.90;;;;;;5103556;27;20261;-70
2023/03/23 09:41:33;;;;;;;;;;;21.00;99.90;;;;;;5102252;28;19912;-69
2023/03/23 09:44:05;;;;;;;;;;;20.90;99.90;;;;;;5073071;28;20289;-70
2023/03/23 09:46:50;;;;;;;;;;;21.00;99.90;;;;;;5094060;27;19939;-70
2023/03/23 09:49:24;;;;;;;;;;;20.90;99.90;;;;;;5092664;27;20337;-71
2023/03/23 09:51:53;;;;;;;;;;;21.00;99.90;;;;;;5082493;27;20007;-72
2023/03/23 09:54:23;;;;;;;;;;;20.90;99.90;;;;;;5081069;28;20387;-72
2023/03/23 09:56:51;;;;;;;;;;;21.00;99.90;;;;;;5065314;28;20007;-70
2023/03/23 09:59:18;;;;;;;;;;;21.00;99.90;;;;;;5085177;28;20352;-69
2023/03/23 10:01:49;;;;;;;;;;;21.00;99.90;;;;;;5094201;28;19912;-70
2023/03/23 10:04:22;;;;;;;;;;;21.10;99.90;;;;;;5096786;28;20334;-71
2023/03/23 10:06:50;;;;;;;;;;;21.10;99.90;;;;;;5095439;28;19912;-73
2023/03/23 10:09:20;;;;;;;;;;;21.10;99.90;;;;;;5080416;28;20665;-69
2023/03/23 10:12:12;;;;;;;;;;;21.10;99.90;;;;;;5100423;28;20001;-71
2023/03/23 10:14:42;;;;;;;;;;;21.00;99.90;;;;;;5066966;28;19912;-71
2023/03/23 10:17:12;;;;;;;;;;;21.00;99.90;;;;;;5096362;28;19922;-71
2023/03/23 10:19:45;;;;;;;;;;;21.00;99.90;;;;;;5096459;28;19959;-71
2023/03/23 10:22:13;;;;;;;;;;;20.80;99.90;;;;;;5098486;28;20032;-70
2023/03/23 10:24:45;;;;;;;;;;;20.70;99.90;;;;;;5077512;28;20300;-72
2023/03/23 10:27:32;;;;;;;;;;;20.70;99.90;;;;;;5081362;28;19912;-73
2023/03/23 10:30:08;;;;;;;;;;;20.60;99.90;;;;;;5063106;28;19923;-71
2023/03/23 10:32:44;;;;;;;;;;;20.60;99.90;;;;;;5082123;28;19919;-71
2023/03/23 10:35:13;;;;;;;;;;;20.60;99.90;;;;;;5083861;28;20368;-71
2023/03/23 10:37:43;;;;;;;;;;;20.60;99.90;;;;;;5080251;28;19912;-71
2023/03/23 10:40:14;;;;;;;;;;;20.70;99.90;;;;;;5063445;28;19926;-71
2023/03/23 10:42:44;;;;;;;;;;;20.70;99.90;;;;;;5089282;28;19994;-73
2023/03/23 10:45:26;;;;;;;;;;;20.70;99.90;;;;;;5074474;28;20219;-71
2023/03/23 10:47:55;;;;;;;;;;;20.70;99.90;;;;;;5080973;28;19934;-70
2023/03/23 10:50:24;;;;;;;;;;;20.80;99.90;;;;;;5081876;28;20336;-72
2023/03/23 10:52:53;;;;;;;;;;;20.70;99.90;;;;;;5093322;28;19912;-70
2023/03/23 10:55:22;;;;;;;;;;;20.80;99.90;;;;;;5080051;28;19915;-70
2023/03/23 10:58:01;;;;;;;;;;;20.70;99.90;;;;;;5081845;28;19994;-71
2023/03/23 11:00:28;;;;;;;;;;;20.70;99.90;;;;;;5082044;28;19920;-71
2023/03/23 11:03:02;;;;;;;;;;;20.70;99.90;;;;;;5099101;28;19912;-71
2023/03/23 11:05:52;;;;;;;;;;;20.70;99.90;;;;;;5086268;28;19912;-73
2023/03/23 11:08:28;;;;;;;;;;;20.70;99.90;;;;;;5079909;28;20361;-73
2023/03/23 11:10:57;;;;;;;;;;;20.70;99.90;;;;;;5081025;28;20657;-71
2023/03/23 11:13:30;;;;;;;;;;;20.60;99.90;;;;;;5091833;28;20379;-70
2023/03/23 11:15:56;;;;;;;;;;;20.70;99.90;;;;;;5080687;28;20006;-70
2023/03/23 11:18:35;;;;;;;;;;;20.60;99.90;;;;;;5080220;28;19916;-71
2023/03/23 11:21:04;;;;;;;;;;;20.60;99.90;;;;;;5091241;28;20387;-73
2023/03/23 11:23:33;;;;;;;;;;;20.60;99.90;;;;;;5088252;28;19913;-69
2023/03/23 11:26:21;;;;;;;;;;;20.60;99.90;;;;;;5080460;28;20388;-70
2023/03/23 11:28:56;;;;;;;;;;;20.60;99.90;;;;;;5088231;28;19953;-73
2023/03/23 11:31:25;;;;;;;;;;;20.60;99.90;;;;;;5080935;28;20364;-73
2023/03/23 11:33:51;;;;;;;;;;;20.50;99.90;;;;;;5100640;28;19912;-72
2023/03/23 11:36:19;;;;;;;;;;;20.50;99.90;;;;;;5100168;28;19918;-72
2023/03/23 11:38:46;;;;;;;;;;;20.50;99.90;;;;;;5099657;28;19919;-72
2023/03/23 11:41:18;;;;;;;;;;;20.50;99.90;;;;;;5081889;28;20280;-73
2023/03/23 11:43:46;;;;;;;;;;;20.50;99.90;;;;;;5091393;28;20396;-73
2023/03/23 11:46:32;;;;;;;;;;;20.50;99.90;;;;;;5080068;28;20032;-72
2023/03/23 11:49:04;;;;;;;;;;;20.50;99.90;;;;;;5067019;28;19955;-71
2023/03/23 11:51:37;;;;;;;;;;;20.40;99.90;;;;;;5099732;28;19916;-70
2023/03/23 11:54:11;;;;;;;;;;;20.40;99.90;;;;;;5085456;28;19926;-72
2023/03/23 11:56:39;;;;;;;;;;;20.40;99.90;;;;;;5081005;28;19919;-74
2023/03/23 11:59:16;;;;;;;;;;;20.40;99.90;;;;;;5096924;28;20346;-72
2023/03/23 12:01:44;;;;;;;;;;;20.40;99.90;;;;;;5099277;28;20348;-72
2023/03/23 12:04:13;;;;;;;;;;;20.40;99.90;;;;;;5097515;28;20005;-73
2023/03/23 12:06:52;;;;;;;;;;;20.40;99.90;;;;;;5098002;28;20404;-72
2023/03/23 12:09:37;;;;;;;;;;;20.40;99.90;;;;;;5099767;28;19961;-70
2023/03/23 12:12:15;;;;;;;;;;;20.40;99.90;;;;;;5099279;28;20168;-70
2023/03/23 12:14:57;;;;;;;;;;;20.30;99.90;;;;;;5091057;28;19912;-70
2023/03/23 12:17:35;;;;;;;;;;;20.30;99.90;;;;;;5079875;28;19908;-71
2023/03/23 12:20:14;;;;;;;;;;;20.30;99.90;;;;;;5079300;28;19931;-74
2023/03/23 12:22:46;;;;;;;;;;;20.20;99.90;;;;;;5080110;28;19908;-74
2023/03/23 12:25:29;;;;;;;;;;;20.30;99.90;;;;;;5099890;28;20384;-73
2023/03/23 12:28:06;;;;;;;;;;;20.30;99.90;;;;;;5098909;28;19912;-71
2023/03/23 12:30:37;;;;;;;;;;;20.30;99.90;;;;;;5090293;28;20346;-73
2023/03/23 12:33:04;;;;;;;;;;;20.30;99.90;;;;;;5079056;28;20395;-72
2023/03/23 12:35:33;;;;;;;;;;;20.20;99.90;;;;;;5079259;28;19912;-71
2023/03/23 12:38:10;;;;;;;;;;;20.20;99.90;;;;;;5080459;28;19931;-72
2023/03/23 12:40:38;;;;;;;;;;;20.30;99.90;;;;;;5078859;28;20044;-70
2023/03/23 12:43:11;;;;;;;;;;;20.20;99.90;;;;;;5079301;28;19935;-72
2023/03/23 12:45:49;;;;;;;;;;;20.10;99.90;;;;;;5096607;28;19966;-72
2023/03/23 12:48:18;;;;;;;;;;;20.20;99.90;;;;;;5079556;28;19908;-71
2023/03/23 12:50:45;;;;;;;;;;;20.20;99.90;;;;;;5079414;28;19912;-72
2023/03/23 12:53:16;;;;;;;;;;;20.10;99.90;;;;;;5078524;28;20257;-70
2023/03/23 12:55:45;;;;;;;;;;;20.10;99.90;;;;;;5084886;28;20093;-71
2023/03/23 12:58:18;;;;;;;;;;;20.20;99.90;;;;;;5097104;28;19941;-71
2023/03/23 13:00:54;;;;;;;;;;;20.10;99.90;;;;;;5072325;28;19958;-71
2023/03/23 13:03:29;;;;;;;;;;;20.10;99.90;;;;;;5098088;28;19912;-72
2023/03/23 13:06:06;;;;;;;;;;;20.10;99.90;;;;;;5099738;28;19908;-71
2023/03/23 13:08:36;;;;;;;;;;;20.10;99.90;;;;;;5089883;28;20419;-71
2023/03/23 13:11:11;;;;;;;;;;;20.10;99.90;;;;;;5062165;28;19919;-72
2023/03/23 13:14:00;;;;;;;;;;;20.10;99.90;;;;;;5081929;28;19922;-70
2023/03/23 13:16:43;;;;;;;;;;;20.10;99.90;;;;;;5098605;28;19922;-71
2023/03/23 13:19:13;;;;;;;;;;;20.00;99.90;;;;;;5084882;28;20011;-71
2023/03/23 13:21:49;;;;;;;;;;;20.10;99.90;;;;;;5078844;28;19912;-72
2023/03/23 13:24:23;;;;;;;;;;;20.00;99.90;;;;;;5064718;28;20700;-71
2023/03/23 13:26:50;;;;;;;;;;;20.10;99.90;;;;;;5081461;28;19910;-70
2023/03/23 13:29:24;;;;;;;;;;;20.00;99.90;;;;;;5078447;28;19927;-71
2023/03/23 13:31:51;;;;;;;;;;;19.90;99.90;;;;;;5079403;28;19919;-72
2023/03/23 13:34:21;;;;;;;;;;;19.90;99.90;;;;;;5077797;28;19916;-71
2023/03/23 13:36:56;;;;;;;;;;;20.00;99.90;;;;;;5078763;28;19916;-71
2023/03/23 13:39:27;;;;;;;;;;;20.00;99.90;;;;;;5095683;28;20379;-72
2023/03/23 13:42:01;;;;;;;;;;;20.10;99.90;;;;;;5082705;28;19995;-71
2023/03/23 13:44:39;;;;;;;;;;;20.00;99.90;;;;;;5081527;28;20780;-71
2023/03/23 13:47:17;;;;;;;;;;;20.00;99.90;;;;;;5077303;28;19918;-71
2023/03/23 13:49:56;;;;;;;;;;;20.00;99.90;;;;;;5063954;28;19922;-71
2023/03/23 13:52:25;;;;;;;;;;;20.00;99.90;;;;;;5089607;28;19964;-70
2023/03/23 13:54:53;;;;;;;;;;;19.90;99.90;;;;;;5087481;28;19920;-70
2023/03/23 13:57:39;;;;;;;;;;;20.00;99.90;;;;;;5091941;28;20003;-70
2023/03/23 14:00:24;;;;;;;;;;;20.00;99.90;;;;;;5086109;28;19924;-70
2023/03/23 14:02:51;;;;;;;;;;;20.00;99.90;;;;;;5090457;28;20049;-72
2023/03/23 14:05:18;;;;;;;;;;;19.90;99.90;;;;;;5102656;28;19912;-70
2023/03/23 14:08:13;;;;;;;;;;;19.90;99.90;;;;;;5098403;28;19970;-70
2023/03/23 14:10:42;;;;;;;;;;;19.90;99.90;;;;;;5077995;28;19911;-69
2023/03/23 14:13:18;;;;;;;;;;;19.90;99.90;;;;;;5102551;28;20201;-69
2023/03/23 14:15:54;;;;;;;;;;;19.90;99.90;;;;;;5082318;28;20453;-69
2023/03/23 14:18:22;;;;;;;;;;;19.90;99.90;;;;;;5082439;28;19974;-69
2023/03/23 14:20:49;;;;;;;;;;;19.90;99.90;;;;;;5062332;28;19934;-71
2023/03/23 14:23:19;;;;;;;;;;;19.90;99.90;;;;;;5083642;28;19912;-70
2023/03/23 14:25:54;;;;;;;;;;;19.90;99.90;;;;;;5080638;28;19955;-69
2023/03/23 14:28:22;;;;;;;;;;;19.90;99.90;;;;;;5083624;28;20395;-70
2023/03/23 14:30:57;;;;;;;;;;;19.80;99.90;;;;;;5080457;28;19916;-72
2023/03/23 14:33:25;;;;;;;;;;;19.80;99.90;;;;;;5100376;28;19912;-70